Itaguari, Brazil
Current Conditions -  °F | °C
As of 7:00 PM on Thursday 23 Oct 2014 (Local Time) from SBAN Reporting Station
Broken Clouds Broken Clouds  
Wind Chill: 68°   Ceiling: 10000
Heat Index: 68°   Visibility: 6mi
Dew Point: 64°   Wind: 7mph
Humidity: 88%   Direction: 70°ENE
Pressure: 30.09"   Gusts: NA
Location:  15.92°S, 49.6°W
Report Text: SBAN 232100Z 07006KT 9999 FEW040 BKN100 20/18 Q1019
Loading
Personal Weather Stations






























Interactive Weather Map
Tropical Storm Tracking
New forecast layout! Learn more

10-Day Weather Forecast

Advertisements
Track Severe Weather on mobile